Time;durP1;ratioP1;P1;durP2;ratioP2;P2;SDS_P1;SDS_P2;PMS_P1;PMS_P2;Temp;Humidity;BMP_temperature;BMP_pressure;BME280_temperature;BME280_humidity;BME280_pressure;Samples;Min_cycle;Max_cycle;Signal;HPM_P1;HPM_P2
2022/03/13 00:01:21;;;;;;;16.98;9.40;;;6.30;93.40;;;;;;4845330;29;20083;-77
2022/03/13 00:03:47;;;;;;;17.40;9.73;;;7.50;93.70;;;;;;4844981;29;20061;-77
2022/03/13 00:06:14;;;;;;;19.30;9.45;;;6.20;93.40;;;;;;4827741;29;20054;-79
2022/03/13 00:08:40;;;;;;;18.90;10.23;;;7.20;93.60;;;;;;4844927;29;20054;-77
2022/03/13 00:11:17;;;;;;;18.55;9.77;;;6.90;93.70;;;;;;4844835;29;20082;-77
2022/03/13 00:13:51;;;;;;;19.50;10.00;;;7.00;93.80;;;;;;4844477;29;20069;-76
2022/03/13 00:16:18;;;;;;;19.38;10.30;;;6.20;93.80;;;;;;4844915;29;20053;-77
2022/03/13 00:18:46;;;;;;;17.08;9.60;;;7.30;94.00;;;;;;4844967;29;20062;-76
2022/03/13 00:21:21;;;;;;;17.70;9.75;;;7.00;94.00;;;;;;4844237;29;20046;-75
2022/03/13 00:23:47;;;;;;;20.08;9.13;;;7.10;93.90;;;;;;4844636;29;20049;-79
2022/03/13 00:26:15;;;;;;;17.33;9.73;;;6.00;93.60;;;;;;4844490;29;20132;-77
2022/03/13 00:28:41;;;;;;;19.27;9.07;;;6.00;93.60;;;;;;4844455;29;20049;-77
2022/03/13 00:31:07;;;;;;;19.48;10.05;;;6.40;93.60;;;;;;4843653;29;20046;-78
2022/03/13 00:33:33;;;;;;;16.70;9.40;;;6.00;93.40;;;;;;4844556;29;20555;-76
2022/03/13 00:35:59;;;;;;;16.83;8.85;;;7.10;93.70;;;;;;4827890;29;20045;-76
2022/03/13 00:38:25;;;;;;;19.27;9.23;;;6.00;93.40;;;;;;4844364;29;20049;-78
2022/03/13 00:40:55;;;;;;;18.15;9.77;;;5.90;93.30;;;;;;4844055;29;20128;-75
2022/03/13 00:43:23;;;;;;;31.25;11.07;;;5.90;93.40;;;;;;4844383;29;20098;-75
2022/03/13 00:45:53;;;;;;;17.40;9.55;;;6.60;93.60;;;;;;4844463;29;20042;-77
2022/03/13 00:48:18;;;;;;;15.85;9.00;;;7.00;93.80;;;;;;4844319;29;20452;-76
2022/03/13 00:50:45;;;;;;;18.92;9.70;;;5.80;93.50;;;;;;4844376;29;20046;-77
2022/03/13 00:53:11;;;;;;;17.40;9.07;;;6.80;93.90;;;;;;4843734;29;20411;-74
2022/03/13 00:55:37;;;;;;;18.05;10.35;;;5.70;93.70;;;;;;4843791;29;20053;-77
2022/03/13 00:58:02;;;;;;;18.20;10.48;;;6.50;94.00;;;;;;4843924;29;20089;-75
2022/03/13 01:00:29;;;;;;;19.33;9.75;;;6.40;94.00;;;;;;4844121;29;20050;-76
2022/03/13 01:02:55;;;;;;;18.48;9.70;;;5.60;93.90;;;;;;4844132;29;20522;-75
2022/03/13 01:05:23;;;;;;;16.98;9.30;;;5.60;94.00;;;;;;4844166;29;20042;-75
2022/03/13 01:07:52;;;;;;;16.25;9.05;;;5.50;94.00;;;;;;4812441;29;20087;-77
2022/03/13 01:10:18;;;;;;;19.08;10.52;;;5.40;94.00;;;;;;4844058;29;20046;-74
2022/03/13 01:12:44;;;;;;;19.05;9.75;;;6.40;94.40;;;;;;4844202;29;20508;-75
2022/03/13 01:15:10;;;;;;;17.63;9.18;;;5.50;94.20;;;;;;4843893;29;20129;-73
2022/03/13 01:17:36;;;;;;;19.27;10.10;;;5.50;94.20;;;;;;4843860;29;20376;-74
2022/03/13 01:20:05;;;;;;;19.17;10.05;;;5.40;94.10;;;;;;4843738;29;20046;-76
2022/03/13 01:22:30;;;;;;;18.90;10.18;;;5.40;94.10;;;;;;4843620;29;20054;-75
2022/03/13 01:24:57;;;;;;;27.48;10.18;;;6.40;94.30;;;;;;4843324;29;20511;-75
2022/03/13 01:27:22;;;;;;;17.20;9.38;;;6.40;94.40;;;;;;4827249;29;20053;-75
2022/03/13 01:29:49;;;;;;;18.20;10.23;;;6.30;94.30;;;;;;4843774;29;20042;-75
2022/03/13 01:32:15;;;;;;;17.23;9.25;;;6.20;94.40;;;;;;4843510;29;20045;-75
2022/03/13 01:34:51;;;;;;;20.58;10.57;;;6.10;94.30;;;;;;4843759;29;20128;-76
2022/03/13 01:37:30;;;;;;;18.15;9.82;;;5.30;94.20;;;;;;4843353;29;20050;-75
2022/03/13 01:40:02;;;;;;;17.15;9.20;;;5.30;94.70;;;;;;4843593;29;20046;-74
2022/03/13 01:42:28;;;;;;;21.80;9.90;;;5.20;94.40;;;;;;4843375;29;20090;-76
2022/03/13 01:44:53;;;;;;;19.35;10.57;;;6.10;94.50;;;;;;4843412;29;20061;-75
2022/03/13 01:47:20;;;;;;;17.80;10.02;;;5.20;94.40;;;;;;4843229;29;20432;-75
2022/03/13 01:49:47;;;;;;;19.02;9.95;;;6.50;94.70;;;;;;4843282;29;20402;-75
2022/03/13 01:52:15;;;;;;;17.92;9.68;;;5.70;94.50;;;;;;4826810;29;20042;-75
2022/03/13 01:54:44;;;;;;;18.08;9.95;;;6.00;94.70;;;;;;4842915;29;20058;-76
2022/03/13 01:57:14;;;;;;;17.45;9.98;;;5.80;94.70;;;;;;4842800;29;20050;-76
2022/03/13 01:59:41;;;;;;;18.83;10.52;;;6.30;94.80;;;;;;4843147;29;20057;-75
2022/03/13 02:02:07;;;;;;;18.92;10.88;;;5.10;94.50;;;;;;4843054;29;20121;-74
2022/03/13 02:04:33;;;;;;;20.77;10.55;;;6.40;94.90;;;;;;4843017;29;20050;-74
2022/03/13 02:06:58;;;;;;;19.02;9.52;;;5.90;94.90;;;;;;4826422;29;20415;-75
2022/03/13 02:09:26;;;;;;;21.50;10.27;;;5.10;94.70;;;;;;4842828;29;20050;-74
2022/03/13 02:11:53;;;;;;;19.33;10.20;;;5.60;94.90;;;;;;4842611;29;20053;-74
2022/03/13 02:14:23;;;;;;;18.20;10.18;;;4.90;94.80;;;;;;4842697;29;20057;-75
2022/03/13 02:16:52;;;;;;;19.98;10.55;;;4.90;94.90;;;;;;4842690;29;20178;-74
2022/03/13 02:19:18;;;;;;;17.02;9.40;;;6.10;95.50;;;;;;4842471;29;20121;-74
2022/03/13 02:21:52;;;;;;;17.23;9.52;;;4.90;95.30;;;;;;4842552;29;20137;-75
2022/03/13 02:24:22;;;;;;;17.83;9.90;;;4.90;95.10;;;;;;4842814;29;20058;-75
2022/03/13 02:27:03;;;;;;;20.63;9.98;;;6.00;95.30;;;;;;4842392;29;20494;-77
2022/03/13 02:29:29;;;;;;;17.92;10.48;;;4.80;95.50;;;;;;4842585;29;20194;-75
2022/03/13 02:31:58;;;;;;;17.67;9.75;;;6.20;95.90;;;;;;4842266;29;20041;-75
2022/03/13 02:34:24;;;;;;;17.50;10.20;;;4.80;95.20;;;;;;4842126;29;20046;-76
2022/03/13 02:36:50;;;;;;;20.55;10.38;;;4.80;95.20;;;;;;4842394;29;20046;-75
2022/03/13 02:39:16;;;;;;;18.60;10.65;;;5.90;95.60;;;;;;4842466;29;20106;-75
2022/03/13 02:41:43;;;;;;;19.17;11.18;;;4.80;95.20;;;;;;4842022;29;20129;-73
2022/03/13 02:44:11;;;;;;;21.42;10.43;;;4.70;95.40;;;;;;4842221;29;20053;-74
2022/03/13 02:46:45;;;;;;;20.30;10.25;;;4.80;95.40;;;;;;4842258;29;20046;-74
2022/03/13 02:49:12;;;;;;;19.02;11.13;;;4.80;95.60;;;;;;4842149;29;20056;-74
2022/03/13 02:51:38;;;;;;;24.02;11.52;;;5.80;95.90;;;;;;4842312;29;20121;-74
2022/03/13 02:54:04;;;;;;;19.85;10.90;;;4.80;95.70;;;;;;4841764;29;20475;-74
2022/03/13 02:56:30;;;;;;;18.10;10.48;;;4.60;95.70;;;;;;4842188;29;20445;-73
2022/03/13 02:58:56;;;;;;;19.83;9.88;;;4.80;95.80;;;;;;4841278;29;20061;-74
2022/03/13 03:01:22;;;;;;;20.58;10.35;;;5.90;96.00;;;;;;4842396;29;20050;-74
2022/03/13 03:03:48;;;;;;;21.63;10.95;;;4.80;95.60;;;;;;4841717;29;20046;-74
2022/03/13 03:06:17;;;;;;;17.50;10.43;;;4.70;95.60;;;;;;4842405;29;20057;-75
2022/03/13 03:08:42;;;;;;;19.02;10.50;;;4.40;95.60;;;;;;4842113;29;20048;-75
2022/03/13 03:11:08;;;;;;;17.63;10.07;;;4.90;95.70;;;;;;4842189;29;20133;-74
2022/03/13 03:13:34;;;;;;;18.63;10.50;;;4.70;95.60;;;;;;4841707;29;20045;-74
2022/03/13 03:15:59;;;;;;;21.50;10.50;;;4.70;95.60;;;;;;4841890;29;20477;-75
2022/03/13 03:18:25;;;;;;;18.92;10.68;;;5.00;95.70;;;;;;4841752;29;20053;-75
2022/03/13 03:20:51;;;;;;;19.85;9.82;;;4.70;95.60;;;;;;4842089;29;20073;-73
2022/03/13 03:23:17;;;;;;;18.73;10.18;;;4.80;95.50;;;;;;4841992;29;20046;-75
2022/03/13 03:25:43;;;;;;;20.52;10.55;;;4.80;95.60;;;;;;4841973;29;21084;-74
2022/03/13 03:28:09;;;;;;;17.92;9.85;;;4.70;95.50;;;;;;4841864;29;20057;-75
2022/03/13 03:30:35;;;;;;;19.88;10.43;;;4.70;95.50;;;;;;4841167;29;20046;-73
2022/03/13 03:33:03;;;;;;;18.95;9.85;;;4.90;95.70;;;;;;4841628;29;20050;-71
2022/03/13 03:35:29;;;;;;;18.27;9.77;;;4.70;95.70;;;;;;4842113;29;20115;-73
2022/03/13 03:37:56;;;;;;;20.02;10.27;;;4.70;95.60;;;;;;4842211;29;20443;-72
2022/03/13 03:40:29;;;;;;;19.42;10.55;;;4.70;95.60;;;;;;4842051;29;20044;-77
2022/03/13 03:43:05;;;;;;;19.45;10.25;;;4.60;95.70;;;;;;4842173;29;20049;-73
2022/03/13 03:45:31;;;;;;;18.27;10.30;;;4.40;95.70;;;;;;4843271;29;20058;-75
2022/03/13 03:47:58;;;;;;;18.60;9.88;;;5.10;95.80;;;;;;4845730;29;20411;-73
2022/03/13 03:50:24;;;;;;;17.90;9.68;;;4.60;95.60;;;;;;4846007;29;20530;-72
2022/03/13 03:52:55;;;;;;;21.23;10.73;;;4.50;95.60;;;;;;4847914;29;20052;-73
2022/03/13 03:55:22;;;;;;;19.70;10.43;;;5.60;95.90;;;;;;4831076;29;20058;-72
2022/03/13 03:57:48;;;;;;;18.98;10.40;;;4.50;95.80;;;;;;4848217;29;20050;-74
2022/03/13 04:00:15;;;;;;;18.92;10.10;;;5.60;96.10;;;;;;4847317;29;20086;-73
2022/03/13 04:02:41;;;;;;;19.27;9.88;;;4.40;95.80;;;;;;4847048;29;20184;-73
2022/03/13 04:05:08;;;;;;;19.80;9.95;;;4.40;95.70;;;;;;4848694;29;20050;-75
2022/03/13 04:07:36;;;;;;;19.17;10.18;;;4.40;96.00;;;;;;4852064;29;20037;-74
2022/03/13 04:10:03;;;;;;;18.23;9.45;;;4.40;95.60;;;;;;4852434;29;20132;-74
2022/03/13 04:12:30;;;;;;;18.55;9.55;;;4.40;95.70;;;;;;4851740;29;20124;-73
2022/03/13 04:14:56;;;;;;;18.40;9.55;;;4.30;95.70;;;;;;4853733;29;20078;-72
2022/03/13 04:17:22;;;;;;;19.73;9.95;;;5.40;95.80;;;;;;4852845;29;20459;-72
2022/03/13 04:19:48;;;;;;;18.48;9.95;;;4.30;95.60;;;;;;4854110;29;20038;-73
2022/03/13 04:22:15;;;;;;;16.02;10.05;;;4.20;95.50;;;;;;4854626;29;20053;-75
2022/03/13 04:24:41;;;;;;;17.63;9.88;;;4.30;95.50;;;;;;4853816;29;20077;-73
2022/03/13 04:27:07;;;;;;;18.67;10.18;;;4.10;95.50;;;;;;4850961;29;20929;-74
2022/03/13 04:29:34;;;;;;;19.77;10.55;;;4.20;95.60;;;;;;4846394;29;20133;-75
2022/03/13 04:32:00;;;;;;;19.88;10.70;;;5.30;96.00;;;;;;4846509;29;20113;-74
2022/03/13 04:34:25;;;;;;;21.30;10.38;;;4.10;95.70;;;;;;4845799;29;20435;-74
2022/03/13 04:36:51;;;;;;;18.98;9.85;;;5.50;96.00;;;;;;4829081;29;20085;-74
2022/03/13 04:39:17;;;;;;;17.80;10.18;;;5.40;96.00;;;;;;4846092;29;20130;-75
2022/03/13 04:41:43;;;;;;;19.60;10.35;;;5.40;96.10;;;;;;4846695;29;20054;-75
2022/03/13 04:44:12;;;;;;;17.67;10.18;;;5.40;96.10;;;;;;4846511;29;20054;-72
2022/03/13 04:46:38;;;;;;;18.30;10.43;;;4.00;95.70;;;;;;4845950;29;20056;-74
2022/03/13 04:49:04;;;;;;;19.52;10.27;;;3.20;95.60;;;;;;4842384;29;20054;-73
2022/03/13 04:51:30;;;;;;;16.98;9.40;;;3.90;95.70;;;;;;4844306;29;20144;-75
2022/03/13 04:53:55;;;;;;;19.83;10.73;;;5.00;95.90;;;;;;4844002;29;20125;-74
2022/03/13 04:56:21;;;;;;;15.95;9.43;;;5.30;96.00;;;;;;4844198;29;20557;-72
2022/03/13 04:58:47;;;;;;;21.02;10.65;;;3.90;95.50;;;;;;4842863;29;20057;-74
2022/03/13 05:01:12;;;;;;;16.77;8.85;;;3.90;95.50;;;;;;4843300;29;20396;-71
2022/03/13 05:03:38;;;;;;;20.63;10.07;;;5.30;95.70;;;;;;4842131;29;20077;-75
2022/03/13 05:06:07;;;;;;;19.30;10.00;;;3.80;95.20;;;;;;4842523;29;20054;-75
2022/03/13 05:08:34;;;;;;;17.98;9.90;;;3.80;95.20;;;;;;4842072;29;20432;-76
2022/03/13 05:11:00;;;;;;;19.40;10.65;;;3.80;95.10;;;;;;4842605;29;20050;-74
2022/03/13 05:13:26;;;;;;;19.55;9.93;;;3.80;95.10;;;;;;4842092;29;20038;-74
2022/03/13 05:15:52;;;;;;;15.98;8.93;;;3.80;95.10;;;;;;4843662;29;20056;-74
2022/03/13 05:18:19;;;;;;;15.80;8.70;;;3.80;94.90;;;;;;4842942;29;20050;-74
2022/03/13 05:20:45;;;;;;;16.25;8.30;;;3.70;94.80;;;;;;4843781;29;20137;-74
2022/03/13 05:23:11;;;;;;;16.98;8.63;;;3.80;94.70;;;;;;4843583;29;20046;-77
2022/03/13 05:25:39;;;;;;;19.90;9.20;;;3.90;94.60;;;;;;4843738;29;20046;-75
2022/03/13 05:28:09;;;;;;;16.70;8.32;;;3.70;94.60;;;;;;4843810;29;20078;-75
2022/03/13 05:30:35;;;;;;;16.67;9.05;;;4.70;94.70;;;;;;4843586;29;20448;-74
2022/03/13 05:33:01;;;;;;;15.82;8.70;;;3.70;94.40;;;;;;4843564;29;20110;-76
2022/03/13 05:35:27;;;;;;;18.30;8.43;;;3.70;94.30;;;;;;4843098;29;20042;-75
2022/03/13 05:37:54;;;;;;;15.15;7.97;;;3.60;94.20;;;;;;4843566;29;20486;-74
2022/03/13 05:40:20;;;;;;;17.88;9.00;;;3.60;94.10;;;;;;4843519;29;20384;-75
2022/03/13 05:42:50;;;;;;;16.33;8.02;;;5.00;94.50;;;;;;4843712;29;20474;-75
2022/03/13 05:45:20;;;;;;;16.13;6.10;;;3.50;94.00;;;;;;4843351;29;20042;-72
2022/03/13 05:47:47;;;;;;;11.98;5.32;;;3.90;94.00;;;;;;4843180;29;20120;-75
2022/03/13 05:50:14;;;;;;;13.60;5.13;;;3.60;93.90;;;;;;4842882;29;20081;-74
2022/03/13 05:52:41;;;;;;;12.30;4.75;;;3.60;93.90;;;;;;4843197;29;20053;-76
2022/03/13 05:55:08;;;;;;;15.77;5.63;;;3.60;93.90;;;;;;4826817;29;20125;-76
2022/03/13 05:57:34;;;;;;;16.83;5.80;;;3.50;94.00;;;;;;4842972;29;20506;-75
2022/03/13 06:00:00;;;;;;;13.70;5.82;;;3.40;94.20;;;;;;4843113;29;20098;-75
2022/03/13 06:02:26;;;;;;;15.07;5.03;;;3.30;93.90;;;;;;4842919;29;20037;-73
2022/03/13 06:04:52;;;;;;;12.70;5.35;;;3.40;94.00;;;;;;4843112;29;20042;-74
2022/03/13 06:07:18;;;;;;;13.15;5.32;;;3.20;94.20;;;;;;4842537;29;20510;-74
2022/03/13 06:09:44;;;;;;;13.18;4.90;;;3.40;94.10;;;;;;4842889;29;20387;-76
2022/03/13 06:12:10;;;;;;;15.35;5.72;;;3.50;94.20;;;;;;4842804;29;20053;-74
2022/03/13 06:14:36;;;;;;;14.70;5.18;;;5.00;94.60;;;;;;4842863;29;20457;-76
2022/03/13 06:17:02;;;;;;;14.63;5.30;;;2.70;93.70;;;;;;4842766;29;20183;-75
2022/03/13 06:19:28;;;;;;;16.00;5.40;;;3.50;93.70;;;;;;4842536;29;20475;-77
2022/03/13 06:21:53;;;;;;;15.20;5.70;;;3.60;93.50;;;;;;4826426;29;20068;-76
2022/03/13 06:24:19;;;;;;;14.00;5.38;;;3.50;93.00;;;;;;4844665;29;20054;-76
2022/03/13 06:26:45;;;;;;;13.43;5.20;;;3.50;93.20;;;;;;4845168;29;20061;-75
2022/03/13 06:29:14;;;;;;;14.40;5.13;;;3.60;93.00;;;;;;4844162;29;20057;-76
2022/03/13 06:31:41;;;;;;;13.80;4.68;;;3.70;93.20;;;;;;4845676;29;20086;-75
2022/03/13 06:34:07;;;;;;;14.50;5.03;;;3.80;93.10;;;;;;4844314;29;20046;-74
2022/03/13 06:36:34;;;;;;;10.95;4.40;;;3.90;93.00;;;;;;4844590;29;20046;-74
2022/03/13 06:39:00;;;;;;;14.95;5.10;;;3.90;92.90;;;;;;4844949;29;20074;-74
2022/03/13 06:41:26;;;;;;;12.65;5.38;;;4.00;92.50;;;;;;4844666;29;20057;-74
2022/03/13 06:43:53;;;;;;;13.38;5.03;;;5.30;92.50;;;;;;4844665;29;20052;-75
2022/03/13 06:46:18;;;;;;;12.55;5.03;;;4.10;92.50;;;;;;4844809;29;20495;-74
2022/03/13 06:48:44;;;;;;;12.85;4.80;;;4.60;92.60;;;;;;4845026;29;20082;-72
2022/03/13 06:51:10;;;;;;;12.88;4.78;;;4.20;92.30;;;;;;4844920;29;20110;-75
2022/03/13 06:53:36;;;;;;;13.38;5.20;;;4.30;92.20;;;;;;4842947;29;20053;-74
2022/03/13 06:56:02;;;;;;;13.02;5.22;;;4.80;91.80;;;;;;4843769;29;20136;-74
2022/03/13 06:58:28;;;;;;;16.38;5.18;;;4.50;91.80;;;;;;4844527;29;20083;-78
2022/03/13 07:00:54;;;;;;;14.88;5.32;;;5.40;91.30;;;;;;4844376;29;20046;-75
2022/03/13 07:03:20;;;;;;;11.13;4.35;;;4.70;91.10;;;;;;4844351;29;20094;-75
2022/03/13 07:05:46;;;;;;;13.10;4.88;;;5.90;91.40;;;;;;4844297;29;20041;-77
2022/03/13 07:08:13;;;;;;;13.75;4.63;;;4.80;91.30;;;;;;4843795;29;20081;-76
2022/03/13 07:10:39;;;;;;;11.57;4.60;;;5.40;91.60;;;;;;4842643;29;20140;-76
2022/03/13 07:13:05;;;;;;;12.90;5.15;;;4.90;91.30;;;;;;4842445;29;20084;-75
2022/03/13 07:15:31;;;;;;;11.80;4.80;;;5.00;91.00;;;;;;4842732;29;20073;-76
2022/03/13 07:17:57;;;;;;;11.05;4.13;;;6.40;91.40;;;;;;4842689;29;20069;-78
2022/03/13 07:20:23;;;;;;;11.18;4.35;;;5.70;90.90;;;;;;4843457;29;20050;-73
2022/03/13 07:22:49;;;;;;;11.10;4.68;;;5.30;90.80;;;;;;4842590;29;20053;-75
2022/03/13 07:25:16;;;;;;;11.50;5.07;;;5.40;90.50;;;;;;4842175;29;20096;-75
2022/03/13 07:27:42;;;;;;;15.43;7.38;;;6.70;90.50;;;;;;4843406;29;20109;-74
2022/03/13 07:30:14;;;;;;;15.05;7.38;;;6.40;90.80;;;;;;4844159;29;20046;-77
2022/03/13 07:32:41;;;;;;;14.68;6.70;;;5.60;90.40;;;;;;4842973;29;20053;-74
2022/03/13 07:35:08;;;;;;;12.75;6.00;;;5.70;90.10;;;;;;4842272;29;20046;-75
2022/03/13 07:37:33;;;;;;;13.48;5.93;;;5.80;90.20;;;;;;4842159;29;20387;-75
2022/03/13 07:40:00;;;;;;;13.32;6.10;;;7.10;90.40;;;;;;4825256;29;20056;-74
2022/03/13 07:42:26;;;;;;;10.85;4.97;;;5.90;89.80;;;;;;4845401;29;20077;-75
2022/03/13 07:44:52;;;;;;;13.65;6.60;;;6.00;89.40;;;;;;4847621;29;20054;-77
2022/03/13 07:47:18;;;;;;;17.95;6.10;;;6.00;89.50;;;;;;4846121;29;20451;-74
2022/03/13 07:49:44;;;;;;;14.38;6.05;;;7.10;89.60;;;;;;4846095;29;20093;-81
2022/03/13 07:52:10;;;;;;;14.93;6.18;;;7.10;89.30;;;;;;4845765;29;20120;-80
2022/03/13 07:54:35;;;;;;;15.13;6.00;;;7.00;89.10;;;;;;4845565;29;20081;-73
2022/03/13 07:57:02;;;;;;;12.07;5.53;;;7.40;88.80;;;;;;4844705;29;20534;-75
2022/03/13 07:59:27;;;;;;;14.50;6.03;;;6.50;88.30;;;;;;4844908;29;20068;-75
2022/03/13 08:01:53;;;;;;;13.38;6.38;;;6.60;87.70;;;;;;4845124;29;20124;-75
2022/03/13 08:04:19;;;;;;;13.63;6.05;;;6.70;87.10;;;;;;4845162;29;20118;-74
2022/03/13 08:06:44;;;;;;;13.85;6.95;;;6.80;86.30;;;;;;4846025;29;20064;-70
2022/03/13 08:09:11;;;;;;;13.88;5.75;;;7.70;85.80;;;;;;4847012;29;20057;-73
2022/03/13 08:11:38;;;;;;;13.77;5.63;;;7.00;85.00;;;;;;4845368;29;20176;-74
2022/03/13 08:14:07;;;;;;;13.73;7.18;;;8.20;85.80;;;;;;4844625;29;20061;-72
2022/03/13 08:16:33;;;;;;;15.23;6.53;;;7.10;85.40;;;;;;4845810;29;20049;-71
2022/03/13 08:19:00;;;;;;;17.05;6.38;;;7.20;84.80;;;;;;4845835;29;20042;-73
2022/03/13 08:21:26;;;;;;;13.88;5.97;;;7.70;84.80;;;;;;4835063;29;20392;-73
2022/03/13 08:23:52;;;;;;;15.57;6.07;;;7.40;84.00;;;;;;4836586;29;20094;-73
2022/03/13 08:26:18;;;;;;;14.25;6.85;;;7.40;83.00;;;;;;4832734;29;20077;-75
2022/03/13 08:28:44;;;;;;;14.50;5.95;;;7.50;83.10;;;;;;4811259;29;20061;-73
2022/03/13 08:31:10;;;;;;;13.98;5.85;;;8.20;82.70;;;;;;4842227;29;20058;-71
2022/03/13 08:33:39;;;;;;;16.02;5.38;;;7.70;82.30;;;;;;4834090;29;20121;-72
2022/03/13 08:36:05;;;;;;;15.30;6.18;;;7.80;79.50;;;;;;4834237;29;20403;-74
2022/03/13 08:38:31;;;;;;;14.45;5.53;;;7.80;82.20;;;;;;4833806;29;20042;-76
2022/03/13 08:40:56;;;;;;;13.02;5.38;;;8.00;80.00;;;;;;4835324;29;20064;-76
2022/03/13 08:43:22;;;;;;;12.07;5.20;;;8.30;81.70;;;;;;4836228;29;20178;-75
2022/03/13 08:45:49;;;;;;;13.35;5.40;;;9.20;80.70;;;;;;4836060;29;20043;-74
2022/03/13 08:48:15;;;;;;;12.23;4.97;;;8.30;77.60;;;;;;4833509;29;20034;-74
2022/03/13 08:50:40;;;;;;;16.15;5.43;;;9.00;79.60;;;;;;4836150;29;20041;-77
2022/03/13 08:53:07;;;;;;;13.98;5.15;;;8.50;78.40;;;;;;4833570;29;20049;-75
2022/03/13 08:55:33;;;;;;;15.25;5.85;;;8.50;78.10;;;;;;4833283;29;20498;-75
2022/03/13 08:57:58;;;;;;;12.20;5.07;;;9.10;80.10;;;;;;4835512;29;20132;-73
2022/03/13 09:00:27;;;;;;;12.68;5.35;;;8.70;77.60;;;;;;4836094;29;20069;-77
2022/03/13 09:02:53;;;;;;;13.40;5.18;;;8.90;75.70;;;;;;4833871;29;20050;-75
2022/03/13 09:05:20;;;;;;;11.07;4.70;;;9.80;77.00;;;;;;4835796;29;20060;-73
2022/03/13 09:07:47;;;;;;;13.25;5.57;;;9.90;77.90;;;;;;4834494;29;20053;-75
2022/03/13 09:10:13;;;;;;;12.32;5.43;;;10.20;78.50;;;;;;4833679;29;20053;-73
2022/03/13 09:12:39;;;;;;;15.73;6.00;;;9.30;76.50;;;;;;4833699;29;20369;-75
2022/03/13 09:15:06;;;;;;;11.90;5.07;;;9.50;78.40;;;;;;4838369;29;20117;-75
2022/03/13 09:17:32;;;;;;;14.45;5.97;;;9.60;74.90;;;;;;4843984;29;20046;-74
2022/03/13 09:19:58;;;;;;;13.15;5.47;;;10.10;75.90;;;;;;4843945;29;20049;-74
2022/03/13 09:22:28;;;;;;;16.88;5.45;;;10.70;73.60;;;;;;4843982;29;20046;-74
2022/03/13 09:24:57;;;;;;;12.45;5.50;;;10.00;74.50;;;;;;4843914;29;20046;-74
2022/03/13 09:27:23;;;;;;;13.98;6.10;;;10.00;75.20;;;;;;4843567;29;20530;-75
2022/03/13 09:29:49;;;;;;;19.67;5.57;;;10.10;75.40;;;;;;4826366;29;20069;-75
2022/03/13 09:32:15;;;;;;;11.35;5.10;;;11.10;74.70;;;;;;4843486;29;20046;-74
2022/03/13 09:34:40;;;;;;;14.13;5.53;;;10.10;75.20;;;;;;4843818;29;20171;-75
2022/03/13 09:37:06;;;;;;;18.80;5.78;;;10.40;76.00;;;;;;4843908;29;20053;-76
2022/03/13 09:39:32;;;;;;;12.30;5.20;;;10.90;76.20;;;;;;4843691;29;20125;-77
2022/03/13 09:41:57;;;;;;;18.08;6.07;;;10.60;75.20;;;;;;4843564;29;20102;-73
2022/03/13 09:44:24;;;;;;;13.45;5.75;;;10.80;75.00;;;;;;4843638;29;20194;-77
2022/03/13 09:46:50;;;;;;;11.20;4.95;;;11.20;74.90;;;;;;4843291;29;20077;-72
2022/03/13 09:49:17;;;;;;;12.02;5.03;;;11.10;74.10;;;;;;4843442;29;20154;-76
2022/03/13 09:51:42;;;;;;;14.02;5.65;;;11.30;71.90;;;;;;4843348;29;20054;-75
2022/03/13 09:54:08;;;;;;;15.18;5.90;;;11.70;72.90;;;;;;4843229;29;20045;-75
2022/03/13 09:56:35;;;;;;;11.73;5.22;;;11.90;73.10;;;;;;4843234;29;20049;-79
2022/03/13 09:59:02;;;;;;;14.48;5.82;;;12.00;70.60;;;;;;4843111;29;20054;-79
2022/03/13 10:01:28;;;;;;;12.07;4.93;;;11.80;70.10;;;;;;4843045;29;20050;-78
2022/03/13 10:03:54;;;;;;;11.43;5.05;;;12.10;71.70;;;;;;4842869;29;20414;-73
2022/03/13 10:06:20;;;;;;;13.15;5.80;;;12.00;69.80;;;;;;4842992;29;20534;-75
2022/03/13 10:08:45;;;;;;;13.35;5.90;;;12.00;71.80;;;;;;4857400;29;20141;-80
2022/03/13 10:11:11;;;;;;;15.43;5.68;;;12.50;70.20;;;;;;4843204;29;20475;-74
2022/03/13 10:13:45;;;;;;;14.82;6.78;;;12.00;71.10;;;;;;4842894;29;20054;-80
2022/03/13 10:16:19;;;;;;;12.57;5.25;;;12.00;70.10;;;;;;4842891;29;20164;-76
2022/03/13 10:18:45;;;;;;;13.52;4.70;;;12.10;68.80;;;;;;4841796;29;20181;-74
2022/03/13 10:21:13;;;;;;;12.40;4.70;;;12.00;70.60;;;;;;4843040;29;20045;-77
2022/03/13 10:23:40;;;;;;;16.95;5.72;;;12.20;68.30;;;;;;4842888;29;20046;-76
2022/03/13 10:26:06;;;;;;;13.63;5.40;;;12.20;70.10;;;;;;4826704;29;20496;-75
2022/03/13 10:28:36;;;;;;;12.70;5.22;;;12.20;69.50;;;;;;4810601;29;20054;-73
2022/03/13 10:31:02;;;;;;;13.73;4.93;;;12.30;66.00;;;;;;4840659;29;20054;-76
2022/03/13 10:33:35;;;;;;;12.10;5.57;;;12.30;64.90;;;;;;4842475;29;20049;-76
2022/03/13 10:36:12;;;;;;;14.20;5.63;;;12.40;69.00;;;;;;4842795;29;20054;-76
2022/03/13 10:38:39;;;;;;;12.48;5.20;;;12.20;65.40;;;;;;4833445;29;20058;-75
2022/03/13 10:41:08;;;;;;;12.27;5.43;;;12.20;66.80;;;;;;4832361;29;20051;-75
2022/03/13 10:43:39;;;;;;;12.90;5.75;;;12.20;67.60;;;;;;4833739;29;20133;-76
2022/03/13 10:46:06;;;;;;;15.95;6.13;;;12.20;66.10;;;;;;4832882;29;20042;-75
2022/03/13 10:48:36;;;;;;;16.35;5.63;;;12.30;66.40;;;;;;4823186;29;20856;-77
2022/03/13 10:51:04;;;;;;;15.75;6.55;;;12.50;66.50;;;;;;4819610;29;20068;-76
2022/03/13 10:53:31;;;;;;;12.85;5.70;;;12.60;64.70;;;;;;4832678;29;20050;-74
2022/03/13 10:56:08;;;;;;;12.35;5.35;;;12.60;65.90;;;;;;4840429;29;20477;-74
2022/03/13 10:58:40;;;;;;;15.75;7.15;;;12.60;64.60;;;;;;4840104;29;20582;-72
2022/03/13 11:01:16;;;;;;;13.52;7.25;;;12.70;65.40;;;;;;4831848;29;20042;-74
2022/03/13 11:03:56;;;;;;;16.65;7.93;;;12.90;65.30;;;;;;4823575;29;20042;-74
2022/03/13 11:06:24;;;;;;;15.02;7.72;;;12.90;62.90;;;;;;4819581;29;20053;-76
2022/03/13 11:08:53;;;;;;;14.38;6.78;;;12.90;63.30;;;;;;4825258;29;20050;-76
2022/03/13 11:11:20;;;;;;;13.68;6.05;;;12.80;60.80;;;;;;4824062;29;20050;-75
2022/03/13 11:13:56;;;;;;;14.55;6.38;;;12.80;60.50;;;;;;4823741;29;20093;-75
2022/03/13 11:16:30;;;;;;;14.65;6.38;;;12.80;60.20;;;;;;4823320;29;20057;-72
2022/03/13 11:19:01;;;;;;;13.10;6.13;;;12.90;60.40;;;;;;4840032;29;20042;-76
2022/03/13 11:21:27;;;;;;;11.52;5.95;;;12.90;59.80;;;;;;4839871;29;20074;-76
2022/03/13 11:23:53;;;;;;;13.98;6.38;;;13.00;62.60;;;;;;4838285;29;20057;-78
2022/03/13 11:26:22;;;;;;;14.57;6.80;;;13.00;61.00;;;;;;4833365;29;20058;-74
2022/03/13 11:28:49;;;;;;;13.30;6.13;;;13.70;61.00;;;;;;4834054;29;20090;-75
2022/03/13 11:31:30;;;;;;;11.35;5.45;;;13.60;61.50;;;;;;4836301;29;20508;-76
2022/03/13 11:34:13;;;;;;;11.80;6.18;;;13.20;59.50;;;;;;4827800;29;20098;-73
2022/03/13 11:36:41;;;;;;;13.13;6.00;;;13.30;59.90;;;;;;4818512;29;20050;-72
2022/03/13 11:39:09;;;;;;;14.07;6.30;;;13.20;59.00;;;;;;4825289;29;20050;-72
2022/03/13 11:41:43;;;;;;;14.60;6.38;;;13.10;60.60;;;;;;4828287;29;20046;-73
2022/03/13 11:44:18;;;;;;;15.88;7.13;;;13.00;60.40;;;;;;4832092;29;20076;-77
2022/03/13 11:46:46;;;;;;;14.23;6.47;;;12.90;58.00;;;;;;4816135;29;20058;-77
2022/03/13 11:49:34;;;;;;;11.95;6.13;;;13.30;59.50;;;;;;4833017;29;20121;-74
2022/03/13 11:52:17;;;;;;;17.33;6.75;;;13.10;59.00;;;;;;4838402;29;20156;-75
2022/03/13 11:54:52;;;;;;;13.88;6.43;;;13.10;58.70;;;;;;4831098;29;20039;-73
2022/03/13 11:57:24;;;;;;;13.88;5.80;;;13.30;58.80;;;;;;4830518;29;20054;-77
2022/03/13 12:00:13;;;;;;;13.40;6.45;;;13.30;59.90;;;;;;4831795;29;20061;-76
2022/03/13 12:02:41;;;;;;;15.65;6.68;;;13.30;57.10;;;;;;4832157;29;20507;-75
2022/03/13 12:05:28;;;;;;;19.85;6.30;;;13.30;57.90;;;;;;4831495;29;20130;-76
2022/03/13 12:08:08;;;;;;;15.15;6.07;;;13.40;55.50;;;;;;4815605;29;20058;-76
2022/03/13 12:10:41;;;;;;;13.45;7.15;;;13.50;57.80;;;;;;4832105;29;20062;-76
2022/03/13 12:13:10;;;;;;;13.80;7.05;;;13.40;56.30;;;;;;4831104;29;20509;-75
2022/03/13 12:15:37;;;;;;;15.02;6.57;;;13.40;58.50;;;;;;4838616;29;20493;-78
2022/03/13 12:18:18;;;;;;;14.77;6.22;;;13.30;59.10;;;;;;4841249;29;20514;-74
2022/03/13 12:20:49;;;;;;;14.10;5.88;;;13.30;57.90;;;;;;4836774;29;20046;-76
2022/03/13 12:23:31;;;;;;;15.32;6.82;;;13.40;59.00;;;;;;4822811;29;20050;-74
2022/03/13 12:26:30;;;;;;;13.65;6.60;;;13.50;56.40;;;;;;4823089;29;20058;-75
2022/03/13 12:28:57;;;;;;;13.35;6.32;;;13.50;52.70;;;;;;4794319;29;20098;-72
2022/03/13 12:31:26;;;;;;;14.13;6.50;;;13.60;57.00;;;;;;4795068;29;20039;-74
2022/03/13 12:33:53;;;;;;;15.13;5.70;;;13.60;56.20;;;;;;4826333;29;20049;-77
2022/03/13 12:36:23;;;;;;;13.82;6.70;;;13.70;55.70;;;;;;4825809;29;20565;-74
2022/03/13 12:38:51;;;;;;;14.43;6.25;;;13.90;57.20;;;;;;4809226;29;20576;-76
2022/03/13 12:41:20;;;;;;;17.55;6.25;;;14.10;56.00;;;;;;4826058;29;20053;-76
2022/03/13 12:43:47;;;;;;;15.02;6.50;;;14.30;55.90;;;;;;4824706;29;20050;-75
2022/03/13 12:46:14;;;;;;;13.27;6.38;;;14.60;56.20;;;;;;4826258;29;20123;-77